sensor_id;sensor_type;location;lat;lon;timestamp;P1;durP1;ratioP1;P2;durP2;ratioP2
21611;SDS011;47005;52.292;13.452;2023-12-20T00:00:20;4.23;;;2.70;;
21611;SDS011;47005;52.292;13.452;2023-12-20T00:02:45;3.23;;;2.13;;
21611;SDS011;47005;52.292;13.452;2023-12-20T00:05:12;5.33;;;2.90;;
21611;SDS011;47005;52.292;13.452;2023-12-20T00:07:40;5.43;;;2.83;;
21611;SDS011;47005;52.292;13.452;2023-12-20T00:10:06;4.27;;;2.63;;
21611;SDS011;47005;52.292;13.452;2023-12-20T00:12:32;3.70;;;2.27;;
21611;SDS011;47005;52.292;13.452;2023-12-20T00:14:58;5.17;;;3.07;;
21611;SDS011;47005;52.292;13.452;2023-12-20T00:17:23;5.07;;;2.93;;
21611;SDS011;47005;52.292;13.452;2023-12-20T00:19:49;5.03;;;3.13;;
21611;SDS011;47005;52.292;13.452;2023-12-20T00:22:14;4.53;;;2.87;;
21611;SDS011;47005;52.292;13.452;2023-12-20T00:24:40;4.20;;;2.53;;
21611;SDS011;47005;52.292;13.452;2023-12-20T00:27:06;3.97;;;2.80;;
21611;SDS011;47005;52.292;13.452;2023-12-20T00:29:31;4.60;;;2.47;;
21611;SDS011;47005;52.292;13.452;2023-12-20T00:31:57;5.60;;;3.10;;
21611;SDS011;47005;52.292;13.452;2023-12-20T00:34:22;5.40;;;3.23;;
21611;SDS011;47005;52.292;13.452;2023-12-20T00:36:48;5.60;;;3.17;;
21611;SDS011;47005;52.292;13.452;2023-12-20T00:39:14;4.93;;;3.23;;
21611;SDS011;47005;52.292;13.452;2023-12-20T00:41:39;4.50;;;2.90;;
21611;SDS011;47005;52.292;13.452;2023-12-20T00:44:05;4.77;;;3.03;;
21611;SDS011;47005;52.292;13.452;2023-12-20T00:46:30;2.63;;;1.60;;
21611;SDS011;47005;52.292;13.452;2023-12-20T00:48:56;4.03;;;2.93;;
21611;SDS011;47005;52.292;13.452;2023-12-20T00:51:22;5.40;;;3.20;;
21611;SDS011;47005;52.292;13.452;2023-12-20T00:53:49;4.37;;;2.73;;
21611;SDS011;47005;52.292;13.452;2023-12-20T00:56:15;4.60;;;3.03;;
21611;SDS011;47005;52.292;13.452;2023-12-20T00:58:40;4.27;;;2.83;;
21611;SDS011;47005;52.292;13.452;2023-12-20T01:01:06;5.60;;;3.30;;
21611;SDS011;47005;52.292;13.452;2023-12-20T01:03:32;4.23;;;3.10;;
21611;SDS011;47005;52.292;13.452;2023-12-20T01:05:57;3.70;;;2.43;;
21611;SDS011;47005;52.292;13.452;2023-12-20T01:08:23;4.00;;;2.93;;
21611;SDS011;47005;52.292;13.452;2023-12-20T01:10:48;3.83;;;3.10;;
21611;SDS011;47005;52.292;13.452;2023-12-20T01:13:14;3.83;;;2.50;;
21611;SDS011;47005;52.292;13.452;2023-12-20T01:15:40;6.93;;;3.50;;
21611;SDS011;47005;52.292;13.452;2023-12-20T01:18:06;3.70;;;2.50;;
21611;SDS011;47005;52.292;13.452;2023-12-20T01:20:31;3.73;;;2.57;;
21611;SDS011;47005;52.292;13.452;2023-12-20T01:22:57;4.30;;;2.57;;
21611;SDS011;47005;52.292;13.452;2023-12-20T01:25:23;5.03;;;2.50;;
21611;SDS011;47005;52.292;13.452;2023-12-20T01:27:48;3.70;;;2.47;;
21611;SDS011;47005;52.292;13.452;2023-12-20T01:30:15;4.53;;;2.20;;
21611;SDS011;47005;52.292;13.452;2023-12-20T01:32:40;2.93;;;2.17;;
21611;SDS011;47005;52.292;13.452;2023-12-20T01:35:06;0.70;;;0.70;;
21611;SDS011;47005;52.292;13.452;2023-12-20T01:37:32;2.17;;;1.43;;
21611;SDS011;47005;52.292;13.452;2023-12-20T01:39:57;1.50;;;1.23;;
21611;SDS011;47005;52.292;13.452;2023-12-20T01:42:23;1.40;;;0.83;;
21611;SDS011;47005;52.292;13.452;2023-12-20T01:44:49;0.77;;;0.70;;
21611;SDS011;47005;52.292;13.452;2023-12-20T01:47:15;1.47;;;1.00;;
21611;SDS011;47005;52.292;13.452;2023-12-20T01:49:41;1.57;;;1.23;;
21611;SDS011;47005;52.292;13.452;2023-12-20T01:52:07;1.80;;;1.20;;
21611;SDS011;47005;52.292;13.452;2023-12-20T01:54:34;1.53;;;1.17;;
21611;SDS011;47005;52.292;13.452;2023-12-20T01:57:01;1.53;;;1.00;;
21611;SDS011;47005;52.292;13.452;2023-12-20T01:59:27;1.53;;;0.97;;
21611;SDS011;47005;52.292;13.452;2023-12-20T02:01:54;3.13;;;2.03;;
21611;SDS011;47005;52.292;13.452;2023-12-20T02:04:20;2.27;;;1.50;;
21611;SDS011;47005;52.292;13.452;2023-12-20T02:06:46;2.67;;;1.87;;
21611;SDS011;47005;52.292;13.452;2023-12-20T02:09:12;1.87;;;1.27;;
21611;SDS011;47005;52.292;13.452;2023-12-20T02:11:38;2.50;;;1.70;;
21611;SDS011;47005;52.292;13.452;2023-12-20T02:14:03;4.57;;;2.30;;
21611;SDS011;47005;52.292;13.452;2023-12-20T02:16:30;2.17;;;1.40;;
21611;SDS011;47005;52.292;13.452;2023-12-20T02:18:55;2.20;;;1.23;;
21611;SDS011;47005;52.292;13.452;2023-12-20T02:21:25;2.87;;;1.43;;
21611;SDS011;47005;52.292;13.452;2023-12-20T02:23:56;1.17;;;1.07;;
21611;SDS011;47005;52.292;13.452;2023-12-20T02:26:22;1.17;;;0.80;;
21611;SDS011;47005;52.292;13.452;2023-12-20T02:28:48;1.67;;;1.07;;
21611;SDS011;47005;52.292;13.452;2023-12-20T02:31:13;1.60;;;1.20;;
21611;SDS011;47005;52.292;13.452;2023-12-20T02:33:39;2.47;;;1.47;;
21611;SDS011;47005;52.292;13.452;2023-12-20T02:36:07;1.10;;;0.63;;
21611;SDS011;47005;52.292;13.452;2023-12-20T02:38:32;2.20;;;1.17;;
21611;SDS011;47005;52.292;13.452;2023-12-20T02:40:59;2.37;;;1.20;;
21611;SDS011;47005;52.292;13.452;2023-12-20T02:43:24;0.90;;;0.73;;
21611;SDS011;47005;52.292;13.452;2023-12-20T02:45:50;2.10;;;1.47;;
21611;SDS011;47005;52.292;13.452;2023-12-20T02:48:16;2.20;;;1.10;;
21611;SDS011;47005;52.292;13.452;2023-12-20T02:50:41;0.93;;;0.70;;
21611;SDS011;47005;52.292;13.452;2023-12-20T02:53:07;1.77;;;1.37;;
21611;SDS011;47005;52.292;13.452;2023-12-20T02:55:32;2.13;;;1.47;;
21611;SDS011;47005;52.292;13.452;2023-12-20T02:57:58;0.20;;;0.20;;
21611;SDS011;47005;52.292;13.452;2023-12-20T03:00:24;0.73;;;0.73;;
21611;SDS011;47005;52.292;13.452;2023-12-20T03:02:49;0.30;;;0.30;;
21611;SDS011;47005;52.292;13.452;2023-12-20T03:05:15;0.20;;;0.20;;
21611;SDS011;47005;52.292;13.452;2023-12-20T03:07:40;0.30;;;0.30;;
21611;SDS011;47005;52.292;13.452;2023-12-20T03:10:06;1.37;;;1.20;;
21611;SDS011;47005;52.292;13.452;2023-12-20T03:12:33;2.63;;;1.43;;
21611;SDS011;47005;52.292;13.452;2023-12-20T03:14:58;3.87;;;2.33;;
21611;SDS011;47005;52.292;13.452;2023-12-20T03:17:24;1.03;;;0.80;;
21611;SDS011;47005;52.292;13.452;2023-12-20T03:19:50;2.97;;;1.97;;
21611;SDS011;47005;52.292;13.452;2023-12-20T03:22:15;0.43;;;0.43;;
21611;SDS011;47005;52.292;13.452;2023-12-20T03:24:41;0.20;;;0.20;;
21611;SDS011;47005;52.292;13.452;2023-12-20T03:27:06;2.27;;;1.60;;
21611;SDS011;47005;52.292;13.452;2023-12-20T03:29:32;2.67;;;1.40;;
21611;SDS011;47005;52.292;13.452;2023-12-20T03:31:58;2.47;;;2.00;;
21611;SDS011;47005;52.292;13.452;2023-12-20T03:34:23;2.27;;;1.67;;
21611;SDS011;47005;52.292;13.452;2023-12-20T03:36:49;4.10;;;3.27;;
21611;SDS011;47005;52.292;13.452;2023-12-20T03:39:14;3.20;;;1.93;;
21611;SDS011;47005;52.292;13.452;2023-12-20T03:41:40;4.23;;;2.50;;
21611;SDS011;47005;52.292;13.452;2023-12-20T03:44:06;3.00;;;2.00;;
21611;SDS011;47005;52.292;13.452;2023-12-20T03:46:31;2.13;;;1.63;;
21611;SDS011;47005;52.292;13.452;2023-12-20T03:48:57;5.23;;;2.40;;
21611;SDS011;47005;52.292;13.452;2023-12-20T03:51:22;2.97;;;1.93;;
21611;SDS011;47005;52.292;13.452;2023-12-20T03:53:48;4.10;;;2.13;;
21611;SDS011;47005;52.292;13.452;2023-12-20T03:56:13;4.83;;;2.43;;
21611;SDS011;47005;52.292;13.452;2023-12-20T03:58:39;3.67;;;2.00;;
21611;SDS011;47005;52.292;13.452;2023-12-20T04:01:09;2.70;;;1.43;;
21611;SDS011;47005;52.292;13.452;2023-12-20T04:03:37;3.17;;;2.13;;
21611;SDS011;47005;52.292;13.452;2023-12-20T04:06:04;2.73;;;1.90;;
21611;SDS011;47005;52.292;13.452;2023-12-20T04:08:29;2.50;;;1.07;;
21611;SDS011;47005;52.292;13.452;2023-12-20T04:10:55;1.83;;;1.13;;
21611;SDS011;47005;52.292;13.452;2023-12-20T04:13:20;3.10;;;1.47;;
21611;SDS011;47005;52.292;13.452;2023-12-20T04:15:46;2.07;;;1.40;;
21611;SDS011;47005;52.292;13.452;2023-12-20T04:18:13;2.27;;;1.67;;
21611;SDS011;47005;52.292;13.452;2023-12-20T04:20:38;3.70;;;1.20;;
21611;SDS011;47005;52.292;13.452;2023-12-20T04:23:04;2.77;;;1.87;;
21611;SDS011;47005;52.292;13.452;2023-12-20T04:25:29;2.57;;;1.07;;
21611;SDS011;47005;52.292;13.452;2023-12-20T04:27:55;2.00;;;1.33;;
21611;SDS011;47005;52.292;13.452;2023-12-20T04:30:20;2.40;;;1.63;;
21611;SDS011;47005;52.292;13.452;2023-12-20T04:32:46;0.30;;;0.30;;
21611;SDS011;47005;52.292;13.452;2023-12-20T04:35:12;1.53;;;1.10;;
21611;SDS011;47005;52.292;13.452;2023-12-20T04:37:37;1.50;;;1.27;;
21611;SDS011;47005;52.292;13.452;2023-12-20T04:40:03;0.53;;;0.53;;
21611;SDS011;47005;52.292;13.452;2023-12-20T04:42:30;0.20;;;0.20;;
21611;SDS011;47005;52.292;13.452;2023-12-20T04:44:56;0.93;;;0.40;;
21611;SDS011;47005;52.292;13.452;2023-12-20T04:47:21;0.43;;;0.37;;
21611;SDS011;47005;52.292;13.452;2023-12-20T04:49:47;0.87;;;0.87;;
21611;SDS011;47005;52.292;13.452;2023-12-20T04:52:13;0.47;;;0.47;;
21611;SDS011;47005;52.292;13.452;2023-12-20T04:54:39;0.73;;;0.57;;
21611;SDS011;47005;52.292;13.452;2023-12-20T04:57:05;0.73;;;0.63;;
21611;SDS011;47005;52.292;13.452;2023-12-20T04:59:30;0.80;;;0.70;;
21611;SDS011;47005;52.292;13.452;2023-12-20T05:01:56;3.43;;;1.23;;
21611;SDS011;47005;52.292;13.452;2023-12-20T05:04:22;0.60;;;0.60;;
21611;SDS011;47005;52.292;13.452;2023-12-20T05:06:48;0.80;;;0.80;;
21611;SDS011;47005;52.292;13.452;2023-12-20T05:09:15;0.30;;;0.30;;
21611;SDS011;47005;52.292;13.452;2023-12-20T05:11:40;0.93;;;0.90;;
21611;SDS011;47005;52.292;13.452;2023-12-20T05:14:06;0.70;;;0.47;;
21611;SDS011;47005;52.292;13.452;2023-12-20T05:16:32;1.33;;;1.00;;
21611;SDS011;47005;52.292;13.452;2023-12-20T05:18:57;1.23;;;0.87;;
21611;SDS011;47005;52.292;13.452;2023-12-20T05:21:25;2.03;;;1.07;;
21611;SDS011;47005;52.292;13.452;2023-12-20T05:23:51;0.90;;;0.77;;
21611;SDS011;47005;52.292;13.452;2023-12-20T05:26:17;3.27;;;1.10;;
21611;SDS011;47005;52.292;13.452;2023-12-20T05:28:42;2.00;;;1.20;;
21611;SDS011;47005;52.292;13.452;2023-12-20T05:31:08;0.60;;;0.50;;
21611;SDS011;47005;52.292;13.452;2023-12-20T05:33:34;0.53;;;0.50;;
21611;SDS011;47005;52.292;13.452;2023-12-20T05:36:00;1.13;;;0.87;;
21611;SDS011;47005;52.292;13.452;2023-12-20T05:38:25;0.27;;;0.27;;
21611;SDS011;47005;52.292;13.452;2023-12-20T05:40:51;0.20;;;0.20;;
21611;SDS011;47005;52.292;13.452;2023-12-20T05:43:17;0.20;;;0.20;;
21611;SDS011;47005;52.292;13.452;2023-12-20T05:45:42;1.03;;;0.97;;
21611;SDS011;47005;52.292;13.452;2023-12-20T05:48:08;0.87;;;0.70;;
21611;SDS011;47005;52.292;13.452;2023-12-20T05:50:34;6.17;;;0.87;;
21611;SDS011;47005;52.292;13.452;2023-12-20T05:53:00;0.73;;;0.70;;
21611;SDS011;47005;52.292;13.452;2023-12-20T05:55:25;0.30;;;0.30;;
21611;SDS011;47005;52.292;13.452;2023-12-20T05:57:51;0.83;;;0.83;;
21611;SDS011;47005;52.292;13.452;2023-12-20T06:00:17;1.07;;;0.70;;
21611;SDS011;47005;52.292;13.452;2023-12-20T06:02:43;1.70;;;1.23;;
21611;SDS011;47005;52.292;13.452;2023-12-20T06:05:09;1.57;;;0.67;;
21611;SDS011;47005;52.292;13.452;2023-12-20T06:07:34;1.77;;;1.23;;
21611;SDS011;47005;52.292;13.452;2023-12-20T06:10:00;0.30;;;0.30;;
21611;SDS011;47005;52.292;13.452;2023-12-20T06:12:26;0.30;;;0.30;;
21611;SDS011;47005;52.292;13.452;2023-12-20T06:14:53;0.97;;;0.87;;
21611;SDS011;47005;52.292;13.452;2023-12-20T06:17:19;2.00;;;1.00;;
21611;SDS011;47005;52.292;13.452;2023-12-20T06:19:46;0.70;;;0.70;;
21611;SDS011;47005;52.292;13.452;2023-12-20T06:22:17;0.20;;;0.20;;
21611;SDS011;47005;52.292;13.452;2023-12-20T06:24:42;1.17;;;0.50;;
21611;SDS011;47005;52.292;13.452;2023-12-20T06:27:08;3.97;;;1.40;;
21611;SDS011;47005;52.292;13.452;2023-12-20T06:29:34;0.30;;;0.30;;
21611;SDS011;47005;52.292;13.452;2023-12-20T06:31:59;0.20;;;0.20;;
21611;SDS011;47005;52.292;13.452;2023-12-20T06:34:25;10.57;;;1.87;;
21611;SDS011;47005;52.292;13.452;2023-12-20T06:36:51;4.77;;;1.60;;
21611;SDS011;47005;52.292;13.452;2023-12-20T06:39:16;5.77;;;1.77;;
21611;SDS011;47005;52.292;13.452;2023-12-20T06:41:42;5.13;;;2.10;;
21611;SDS011;47005;52.292;13.452;2023-12-20T06:44:08;3.77;;;1.60;;
21611;SDS011;47005;52.292;13.452;2023-12-20T06:46:34;6.97;;;2.07;;
21611;SDS011;47005;52.292;13.452;2023-12-20T06:49:00;4.87;;;2.40;;
21611;SDS011;47005;52.292;13.452;2023-12-20T06:51:25;12.77;;;2.00;;
21611;SDS011;47005;52.292;13.452;2023-12-20T06:53:51;4.23;;;2.20;;
21611;SDS011;47005;52.292;13.452;2023-12-20T06:56:17;2.97;;;1.67;;
21611;SDS011;47005;52.292;13.452;2023-12-20T06:58:43;3.23;;;1.63;;
21611;SDS011;47005;52.292;13.452;2023-12-20T07:01:12;7.33;;;2.20;;
21611;SDS011;47005;52.292;13.452;2023-12-20T07:03:40;4.70;;;2.33;;
21611;SDS011;47005;52.292;13.452;2023-12-20T07:06:06;6.00;;;2.03;;
21611;SDS011;47005;52.292;13.452;2023-12-20T07:08:32;6.50;;;1.67;;
21611;SDS011;47005;52.292;13.452;2023-12-20T07:10:58;9.47;;;1.73;;
21611;SDS011;47005;52.292;13.452;2023-12-20T07:13:23;5.17;;;1.77;;
21611;SDS011;47005;52.292;13.452;2023-12-20T07:15:49;2.87;;;1.40;;
21611;SDS011;47005;52.292;13.452;2023-12-20T07:18:15;5.00;;;1.67;;
21611;SDS011;47005;52.292;13.452;2023-12-20T07:20:41;9.83;;;2.40;;
21611;SDS011;47005;52.292;13.452;2023-12-20T07:23:07;4.10;;;1.80;;
21611;SDS011;47005;52.292;13.452;2023-12-20T07:25:32;6.57;;;1.60;;
21611;SDS011;47005;52.292;13.452;2023-12-20T07:27:58;5.93;;;1.90;;
21611;SDS011;47005;52.292;13.452;2023-12-20T07:30:23;4.77;;;2.03;;
21611;SDS011;47005;52.292;13.452;2023-12-20T07:32:49;11.70;;;2.07;;
21611;SDS011;47005;52.292;13.452;2023-12-20T07:35:15;8.57;;;1.57;;
21611;SDS011;47005;52.292;13.452;2023-12-20T07:37:41;7.47;;;1.70;;
21611;SDS011;47005;52.292;13.452;2023-12-20T07:40:07;8.33;;;1.47;;
21611;SDS011;47005;52.292;13.452;2023-12-20T07:42:33;14.17;;;2.27;;
21611;SDS011;47005;52.292;13.452;2023-12-20T07:44:59;9.83;;;2.47;;
21611;SDS011;47005;52.292;13.452;2023-12-20T07:47:24;4.03;;;1.60;;
21611;SDS011;47005;52.292;13.452;2023-12-20T07:49:50;4.20;;;1.30;;
21611;SDS011;47005;52.292;13.452;2023-12-20T07:52:19;5.80;;;1.50;;
21611;SDS011;47005;52.292;13.452;2023-12-20T07:54:46;4.57;;;1.37;;
21611;SDS011;47005;52.292;13.452;2023-12-20T07:57:12;4.47;;;1.23;;
21611;SDS011;47005;52.292;13.452;2023-12-20T07:59:38;4.07;;;1.50;;
21611;SDS011;47005;52.292;13.452;2023-12-20T08:02:03;6.53;;;1.73;;
21611;SDS011;47005;52.292;13.452;2023-12-20T08:04:29;7.43;;;0.93;;
21611;SDS011;47005;52.292;13.452;2023-12-20T08:06:55;13.60;;;2.20;;
21611;SDS011;47005;52.292;13.452;2023-12-20T08:09:20;5.53;;;1.57;;
21611;SDS011;47005;52.292;13.452;2023-12-20T08:11:47;3.53;;;1.30;;
21611;SDS011;47005;52.292;13.452;2023-12-20T08:14:13;4.13;;;1.73;;
21611;SDS011;47005;52.292;13.452;2023-12-20T08:16:39;4.50;;;1.57;;
21611;SDS011;47005;52.292;13.452;2023-12-20T08:19:04;4.80;;;1.40;;
21611;SDS011;47005;52.292;13.452;2023-12-20T08:21:30;3.67;;;1.93;;
21611;SDS011;47005;52.292;13.452;2023-12-20T08:23:55;5.23;;;1.37;;
21611;SDS011;47005;52.292;13.452;2023-12-20T08:26:21;7.43;;;1.47;;
21611;SDS011;47005;52.292;13.452;2023-12-20T08:28:49;2.67;;;0.80;;
21611;SDS011;47005;52.292;13.452;2023-12-20T08:31:15;5.47;;;1.23;;
21611;SDS011;47005;52.292;13.452;2023-12-20T08:33:43;4.27;;;1.23;;
21611;SDS011;47005;52.292;13.452;2023-12-20T08:36:09;4.23;;;1.37;;
21611;SDS011;47005;52.292;13.452;2023-12-20T08:38:35;2.63;;;1.30;;
21611;SDS011;47005;52.292;13.452;2023-12-20T08:41:01;2.63;;;1.17;;
21611;SDS011;47005;52.292;13.452;2023-12-20T08:43:28;5.80;;;1.23;;
21611;SDS011;47005;52.292;13.452;2023-12-20T08:45:53;3.57;;;1.07;;
21611;SDS011;47005;52.292;13.452;2023-12-20T08:48:19;9.30;;;1.60;;
21611;SDS011;47005;52.292;13.452;2023-12-20T08:50:45;1.50;;;0.73;;
21611;SDS011;47005;52.292;13.452;2023-12-20T08:53:10;9.47;;;1.37;;
21611;SDS011;47005;52.292;13.452;2023-12-20T08:55:36;2.47;;;0.67;;
21611;SDS011;47005;52.292;13.452;2023-12-20T08:58:02;1.80;;;0.53;;
21611;SDS011;47005;52.292;13.452;2023-12-20T09:00:28;3.20;;;1.20;;
21611;SDS011;47005;52.292;13.452;2023-12-20T09:02:54;4.53;;;1.20;;
21611;SDS011;47005;52.292;13.452;2023-12-20T09:05:20;6.20;;;2.03;;
21611;SDS011;47005;52.292;13.452;2023-12-20T09:07:46;4.03;;;0.73;;
21611;SDS011;47005;52.292;13.452;2023-12-20T09:10:11;10.37;;;1.70;;
21611;SDS011;47005;52.292;13.452;2023-12-20T09:12:37;8.33;;;1.40;;
21611;SDS011;47005;52.292;13.452;2023-12-20T09:15:05;2.87;;;1.23;;
21611;SDS011;47005;52.292;13.452;2023-12-20T09:17:31;5.03;;;1.20;;
21611;SDS011;47005;52.292;13.452;2023-12-20T09:19:57;3.07;;;1.03;;
21611;SDS011;47005;52.292;13.452;2023-12-20T09:22:24;7.63;;;1.00;;
21611;SDS011;47005;52.292;13.452;2023-12-20T09:24:50;0.73;;;0.47;;
21611;SDS011;47005;52.292;13.452;2023-12-20T09:27:16;2.93;;;1.47;;
21611;SDS011;47005;52.292;13.452;2023-12-20T09:29:42;3.47;;;1.77;;
21611;SDS011;47005;52.292;13.452;2023-12-20T09:32:07;4.03;;;1.37;;
21611;SDS011;47005;52.292;13.452;2023-12-20T09:34:33;7.37;;;1.50;;
21611;SDS011;47005;52.292;13.452;2023-12-20T09:36:59;9.13;;;1.40;;
21611;SDS011;47005;52.292;13.452;2023-12-20T09:39:24;4.80;;;1.60;;
21611;SDS011;47005;52.292;13.452;2023-12-20T09:42:06;4.13;;;1.60;;
21611;SDS011;47005;52.292;13.452;2023-12-20T09:44:32;4.90;;;1.67;;
21611;SDS011;47005;52.292;13.452;2023-12-20T09:47:00;7.37;;;1.43;;
21611;SDS011;47005;52.292;13.452;2023-12-20T09:49:30;3.67;;;1.40;;
21611;SDS011;47005;52.292;13.452;2023-12-20T09:51:57;8.47;;;1.90;;
21611;SDS011;47005;52.292;13.452;2023-12-20T09:54:24;7.40;;;2.97;;
21611;SDS011;47005;52.292;13.452;2023-12-20T09:56:52;3.37;;;1.47;;
21611;SDS011;47005;52.292;13.452;2023-12-20T09:59:18;11.03;;;1.53;;
21611;SDS011;47005;52.292;13.452;2023-12-20T10:01:43;0.20;;;0.20;;
21611;SDS011;47005;52.292;13.452;2023-12-20T10:04:10;3.97;;;1.57;;
21611;SDS011;47005;52.292;13.452;2023-12-20T10:09:07;7.93;;;1.53;;
21611;SDS011;47005;52.292;13.452;2023-12-20T10:11:35;4.97;;;1.33;;
21611;SDS011;47005;52.292;13.452;2023-12-20T10:14:02;2.63;;;1.07;;
21611;SDS011;47005;52.292;13.452;2023-12-20T10:16:28;2.63;;;0.70;;
21611;SDS011;47005;52.292;13.452;2023-12-20T10:18:54;7.27;;;1.30;;
21611;SDS011;47005;52.292;13.452;2023-12-20T10:21:21;8.83;;;1.87;;
21611;SDS011;47005;52.292;13.452;2023-12-20T10:23:47;6.27;;;1.90;;
21611;SDS011;47005;52.292;13.452;2023-12-20T10:28:54;9.30;;;2.10;;
21611;SDS011;47005;52.292;13.452;2023-12-20T10:31:27;3.67;;;1.27;;
21611;SDS011;47005;52.292;13.452;2023-12-20T10:34:05;4.63;;;1.43;;
21611;SDS011;47005;52.292;13.452;2023-12-20T10:36:31;5.33;;;1.43;;
21611;SDS011;47005;52.292;13.452;2023-12-20T10:38:58;4.17;;;1.80;;
21611;SDS011;47005;52.292;13.452;2023-12-20T10:41:28;9.13;;;1.87;;
21611;SDS011;47005;52.292;13.452;2023-12-20T10:43:56;6.17;;;1.80;;
21611;SDS011;47005;52.292;13.452;2023-12-20T10:46:28;3.27;;;1.13;;
21611;SDS011;47005;52.292;13.452;2023-12-20T10:48:55;5.60;;;1.50;;
21611;SDS011;47005;52.292;13.452;2023-12-20T10:51:22;6.97;;;1.27;;
21611;SDS011;47005;52.292;13.452;2023-12-20T10:53:51;5.30;;;1.87;;
21611;SDS011;47005;52.292;13.452;2023-12-20T10:56:18;4.57;;;1.63;;
21611;SDS011;47005;52.292;13.452;2023-12-20T10:58:47;0.90;;;0.60;;
21611;SDS011;47005;52.292;13.452;2023-12-20T11:01:14;9.13;;;1.77;;
21611;SDS011;47005;52.292;13.452;2023-12-20T11:03:46;5.73;;;1.60;;
21611;SDS011;47005;52.292;13.452;2023-12-20T11:14:20;9.63;;;2.07;;
21611;SDS011;47005;52.292;13.452;2023-12-20T11:16:50;2.97;;;1.60;;
21611;SDS011;47005;52.292;13.452;2023-12-20T11:19:16;1.00;;;0.70;;
21611;SDS011;47005;52.292;13.452;2023-12-20T11:21:42;7.53;;;1.43;;
21611;SDS011;47005;52.292;13.452;2023-12-20T11:24:07;8.33;;;2.10;;
21611;SDS011;47005;52.292;13.452;2023-12-20T11:26:34;4.77;;;1.00;;
21611;SDS011;47005;52.292;13.452;2023-12-20T11:31:54;5.60;;;1.57;;
21611;SDS011;47005;52.292;13.452;2023-12-20T11:34:20;4.17;;;1.60;;
21611;SDS011;47005;52.292;13.452;2023-12-20T11:36:45;13.40;;;1.73;;
21611;SDS011;47005;52.292;13.452;2023-12-20T11:39:11;3.47;;;1.20;;
21611;SDS011;47005;52.292;13.452;2023-12-20T11:41:38;3.70;;;1.53;;
21611;SDS011;47005;52.292;13.452;2023-12-20T11:44:04;2.10;;;1.40;;
21611;SDS011;47005;52.292;13.452;2023-12-20T11:46:30;3.07;;;1.43;;
21611;SDS011;47005;52.292;13.452;2023-12-20T11:48:56;4.27;;;1.10;;
21611;SDS011;47005;52.292;13.452;2023-12-20T11:51:22;6.73;;;1.67;;
21611;SDS011;47005;52.292;13.452;2023-12-20T11:53:51;9.00;;;1.60;;
21611;SDS011;47005;52.292;13.452;2023-12-20T11:56:18;2.77;;;1.20;;
21611;SDS011;47005;52.292;13.452;2023-12-20T11:58:44;2.50;;;1.10;;
21611;SDS011;47005;52.292;13.452;2023-12-20T12:01:09;1.67;;;0.97;;
21611;SDS011;47005;52.292;13.452;2023-12-20T12:03:35;2.97;;;0.93;;
21611;SDS011;47005;52.292;13.452;2023-12-20T12:06:01;2.23;;;1.30;;
21611;SDS011;47005;52.292;13.452;2023-12-20T12:08:29;2.40;;;1.37;;
21611;SDS011;47005;52.292;13.452;2023-12-20T12:10:55;6.03;;;1.40;;
21611;SDS011;47005;52.292;13.452;2023-12-20T12:13:21;3.20;;;1.07;;
21611;SDS011;47005;52.292;13.452;2023-12-20T12:15:47;3.33;;;1.13;;
21611;SDS011;47005;52.292;13.452;2023-12-20T12:18:16;1.47;;;1.03;;
21611;SDS011;47005;52.292;13.452;2023-12-20T12:20:42;6.80;;;1.40;;
21611;SDS011;47005;52.292;13.452;2023-12-20T12:23:08;6.37;;;1.57;;
21611;SDS011;47005;52.292;13.452;2023-12-20T12:25:36;6.40;;;1.33;;
21611;SDS011;47005;52.292;13.452;2023-12-20T12:28:04;5.43;;;1.70;;
21611;SDS011;47005;52.292;13.452;2023-12-20T12:30:30;6.00;;;1.20;;
21611;SDS011;47005;52.292;13.452;2023-12-20T12:32:56;1.53;;;1.20;;
21611;SDS011;47005;52.292;13.452;2023-12-20T12:35:23;1.83;;;1.03;;
21611;SDS011;47005;52.292;13.452;2023-12-20T12:37:49;4.93;;;1.43;;
21611;SDS011;47005;52.292;13.452;2023-12-20T12:40:15;3.87;;;1.30;;
21611;SDS011;47005;52.292;13.452;2023-12-20T12:42:42;2.00;;;0.90;;
21611;SDS011;47005;52.292;13.452;2023-12-20T12:45:09;4.10;;;1.30;;
21611;SDS011;47005;52.292;13.452;2023-12-20T12:47:36;6.67;;;1.63;;
21611;SDS011;47005;52.292;13.452;2023-12-20T12:50:02;3.37;;;1.53;;
21611;SDS011;47005;52.292;13.452;2023-12-20T12:52:28;7.63;;;2.57;;
21611;SDS011;47005;52.292;13.452;2023-12-20T12:54:53;7.23;;;1.40;;
21611;SDS011;47005;52.292;13.452;2023-12-20T12:57:19;2.37;;;1.23;;
21611;SDS011;47005;52.292;13.452;2023-12-20T12:59:45;4.30;;;1.60;;
21611;SDS011;47005;52.292;13.452;2023-12-20T13:02:12;3.07;;;1.30;;
21611;SDS011;47005;52.292;13.452;2023-12-20T13:04:38;4.50;;;1.43;;
21611;SDS011;47005;52.292;13.452;2023-12-20T13:07:04;2.73;;;0.97;;
21611;SDS011;47005;52.292;13.452;2023-12-20T13:09:31;2.00;;;0.70;;
21611;SDS011;47005;52.292;13.452;2023-12-20T13:11:56;1.83;;;1.27;;
21611;SDS011;47005;52.292;13.452;2023-12-20T13:14:22;4.67;;;1.27;;
21611;SDS011;47005;52.292;13.452;2023-12-20T13:16:48;1.87;;;1.07;;
21611;SDS011;47005;52.292;13.452;2023-12-20T13:19:13;3.30;;;1.23;;
21611;SDS011;47005;52.292;13.452;2023-12-20T13:21:39;2.80;;;1.33;;
21611;SDS011;47005;52.292;13.452;2023-12-20T13:24:05;5.13;;;1.37;;
21611;SDS011;47005;52.292;13.452;2023-12-20T13:26:31;1.90;;;1.00;;
21611;SDS011;47005;52.292;13.452;2023-12-20T13:28:57;5.53;;;2.03;;
21611;SDS011;47005;52.292;13.452;2023-12-20T13:31:23;2.37;;;1.10;;
21611;SDS011;47005;52.292;13.452;2023-12-20T13:33:49;9.43;;;1.87;;
21611;SDS011;47005;52.292;13.452;2023-12-20T13:36:14;3.13;;;1.90;;
21611;SDS011;47005;52.292;13.452;2023-12-20T13:38:40;3.97;;;1.37;;
21611;SDS011;47005;52.292;13.452;2023-12-20T13:41:06;8.03;;;1.00;;
21611;SDS011;47005;52.292;13.452;2023-12-20T13:43:32;4.43;;;1.47;;
21611;SDS011;47005;52.292;13.452;2023-12-20T13:45:58;3.97;;;1.60;;
21611;SDS011;47005;52.292;13.452;2023-12-20T13:48:24;2.77;;;1.47;;
21611;SDS011;47005;52.292;13.452;2023-12-20T13:50:50;9.10;;;2.27;;
21611;SDS011;47005;52.292;13.452;2023-12-20T13:53:15;3.03;;;1.70;;
21611;SDS011;47005;52.292;13.452;2023-12-20T13:55:41;5.13;;;1.47;;
21611;SDS011;47005;52.292;13.452;2023-12-20T13:58:07;3.10;;;1.20;;
21611;SDS011;47005;52.292;13.452;2023-12-20T14:00:35;0.53;;;0.53;;
21611;SDS011;47005;52.292;13.452;2023-12-20T14:03:01;1.37;;;0.77;;
21611;SDS011;47005;52.292;13.452;2023-12-20T14:05:28;2.47;;;0.83;;
21611;SDS011;47005;52.292;13.452;2023-12-20T14:07:53;4.60;;;1.00;;
21611;SDS011;47005;52.292;13.452;2023-12-20T14:10:19;1.33;;;1.00;;
21611;SDS011;47005;52.292;13.452;2023-12-20T14:12:45;1.47;;;0.77;;
21611;SDS011;47005;52.292;13.452;2023-12-20T14:15:10;1.10;;;0.47;;
21611;SDS011;47005;52.292;13.452;2023-12-20T14:17:38;2.53;;;0.80;;
21611;SDS011;47005;52.292;13.452;2023-12-20T14:20:05;0.87;;;0.70;;
21611;SDS011;47005;52.292;13.452;2023-12-20T14:22:31;1.10;;;0.70;;
21611;SDS011;47005;52.292;13.452;2023-12-20T14:24:57;1.50;;;0.80;;
21611;SDS011;47005;52.292;13.452;2023-12-20T14:27:23;1.33;;;0.90;;
21611;SDS011;47005;52.292;13.452;2023-12-20T14:29:52;1.13;;;0.60;;
21611;SDS011;47005;52.292;13.452;2023-12-20T14:32:18;2.93;;;0.90;;
21611;SDS011;47005;52.292;13.452;2023-12-20T14:34:44;1.50;;;0.63;;
21611;SDS011;47005;52.292;13.452;2023-12-20T14:37:10;1.03;;;0.80;;
21611;SDS011;47005;52.292;13.452;2023-12-20T14:39:36;2.37;;;1.30;;
21611;SDS011;47005;52.292;13.452;2023-12-20T14:42:06;1.07;;;0.80;;